createdAt,value
2022-09-18T00:00:01.801Z,90.12
2022-09-18T00:02:02.975Z,90.4
2022-09-18T00:04:03.873Z,90.31
2022-09-18T00:06:05.628Z,90.12
2022-09-18T00:08:07.165Z,90.46
2022-09-18T00:10:08.813Z,90.72
2022-09-18T00:12:10.557Z,90.9
2022-09-18T00:14:11.619Z,91.14
2022-09-18T00:16:13.441Z,90.87
2022-09-18T00:18:14.452Z,91.06
2022-09-18T00:20:16.149Z,90.99
2022-09-18T00:22:17.949Z,90.44
2022-09-18T00:24:19.081Z,90.48
2022-09-18T00:26:20.068Z,89.88
2022-09-18T00:28:21.325Z,90.13
2022-09-18T00:32:23.551Z,90.14
2022-09-18T00:36:26.612Z,90.51
2022-09-18T00:38:28.477Z,90.41
2022-09-18T00:40:29.823Z,90.58
2022-09-18T00:42:31.483Z,90.38
2022-09-18T00:44:33.234Z,90.48
2022-09-18T00:46:34.911Z,89.93
2022-09-18T00:48:35.987Z,89.94
2022-09-18T00:50:37.633Z,89.95
2022-09-18T00:52:38.934Z,89.74
2022-09-18T00:54:40.726Z,90.02
2022-09-18T00:56:42.038Z,89.96
2022-09-18T00:58:43.207Z,90.15
2022-09-18T01:00:44.720Z,90.35
2022-09-18T01:02:46.536Z,90.1
2022-09-18T01:04:48.377Z,90.28
2022-09-18T01:06:50.151Z,90.45
2022-09-18T01:08:51.098Z,90.43
2022-09-18T01:10:52.229Z,90.52
2022-09-18T01:12:53.743Z,90.6
2022-09-18T01:14:55.441Z,90.52
2022-09-18T01:16:57.269Z,90.53
2022-09-18T01:18:58.530Z,90.59
2022-09-18T01:21:00.228Z,89.63
2022-09-18T01:23:01.406Z,89.59
2022-09-18T01:25:03.267Z,89.49
2022-09-18T01:27:04.361Z,89.41
2022-09-18T01:29:06.107Z,89.36
2022-09-18T01:31:07.707Z,89.63
2022-09-18T01:33:09.257Z,88.97
2022-09-18T01:35:30.109Z,89.54
2022-09-18T01:37:12.663Z,89.28
2022-09-18T01:39:13.832Z,89.33
2022-09-18T01:41:15.600Z,88.97
2022-09-18T01:43:17.355Z,89.22
2022-09-18T01:45:18.802Z,88.9
2022-09-18T01:47:20.130Z,89.13
2022-09-18T01:51:22.521Z,89.43
2022-09-18T01:53:24.481Z,89.48
2022-09-18T01:55:25.486Z,89.17
2022-09-18T01:57:27.368Z,88.91
2022-09-18T02:01:30.464Z,89.39
2022-09-18T02:03:32.273Z,89.42
2022-09-18T02:05:33.690Z,89.49
2022-09-18T02:07:35.170Z,89.34
2022-09-18T02:09:36.629Z,89.35
2022-09-18T02:11:38.166Z,89.15
2022-09-18T02:13:39.704Z,89.17
2022-09-18T02:15:41.426Z,89.17
2022-09-18T02:17:42.952Z,89.14
2022-09-18T02:19:44.268Z,89.21
2022-09-18T02:21:45.424Z,89.35
2022-09-18T02:23:47.039Z,89.57
2022-09-18T02:25:48.041Z,89.29
2022-09-18T02:27:49.024Z,89.32
2022-09-18T02:29:50.365Z,89.08
2022-09-18T02:31:51.644Z,89.14
2022-09-18T02:33:52.893Z,89.16
2022-09-18T02:35:54.615Z,89.29
2022-09-18T02:37:56.191Z,89.32
2022-09-18T02:39:57.930Z,89.12
2022-09-18T02:41:58.999Z,89.47
2022-09-18T02:44:00.833Z,89.3
2022-09-18T02:46:02.699Z,89.3
2022-09-18T02:50:05.511Z,89.46
2022-09-18T02:52:07.298Z,89.48
2022-09-18T02:54:08.389Z,89.24
2022-09-18T02:56:10.306Z,89.3
2022-09-18T03:00:12.935Z,89.36
2022-09-18T03:02:14.741Z,89.03
2022-09-18T03:04:15.815Z,89.07
2022-09-18T03:06:17.752Z,89.54
2022-09-18T03:08:19.443Z,89.56
2022-09-18T03:10:20.892Z,89.4
2022-09-18T03:12:22.266Z,89.26
2022-09-18T03:14:23.223Z,89.37
2022-09-18T03:16:24.527Z,89.71
2022-09-18T03:18:26.440Z,89.92
2022-09-18T03:20:27.761Z,89.88
2022-09-18T03:22:29.173Z,90.52
2022-09-18T03:24:30.463Z,90.79
2022-09-18T03:26:32.102Z,90.5
2022-09-18T03:28:33.118Z,90.54
2022-09-18T03:30:34.606Z,90.4
2022-09-18T03:32:35.901Z,90.42
2022-09-18T03:34:36.939Z,90.46
2022-09-18T03:38:39.580Z,90.06
2022-09-18T03:42:41.729Z,90.02
2022-09-18T03:44:42.803Z,90.09
2022-09-18T03:46:43.865Z,90.3
2022-09-18T03:48:45.003Z,90.12
2022-09-18T03:50:46.742Z,90.09
2022-09-18T03:52:51.225Z,90.21
2022-09-18T03:54:49.278Z,90.08
2022-09-18T03:56:50.628Z,90.18
2022-09-18T03:58:51.951Z,90.66
2022-09-18T04:00:53.301Z,90.43
2022-09-18T04:02:55.111Z,90.43
2022-09-18T04:04:56.978Z,90.59
2022-09-18T04:06:58.300Z,90.31
2022-09-18T04:08:59.586Z,90.51
2022-09-18T04:11:00.648Z,90.51
2022-09-18T04:15:03.433Z,90.86
2022-09-18T04:17:05.327Z,90.97
2022-09-18T04:21:07.885Z,91.71
2022-09-18T04:23:09.476Z,91.67
2022-09-18T04:25:10.758Z,91.55
2022-09-18T04:27:12.361Z,91.6
2022-09-18T04:29:13.957Z,91.45
2022-09-18T04:31:15.700Z,91.63
2022-09-18T04:33:17.290Z,91.82
2022-09-18T04:35:18.326Z,91.78
2022-09-18T04:37:19.963Z,91.7
2022-09-18T04:39:21.042Z,91.39
2022-09-18T04:41:22.715Z,91.27
2022-09-18T04:42:06.559Z,91.14
2022-09-18T04:44:07.789Z,91.29
2022-09-18T04:46:09.417Z,91.47
2022-09-18T04:48:10.667Z,91.57
2022-09-18T04:50:11.860Z,91.45
2022-09-18T04:52:13.377Z,91.45
2022-09-18T04:54:14.506Z,91.56
2022-09-18T04:56:15.580Z,91.69
2022-09-18T04:58:17.173Z,91.82
2022-09-18T05:00:18.201Z,91.91
2022-09-18T05:04:20.809Z,92.1
2022-09-18T05:06:22.618Z,92.13
2022-09-18T05:08:24.463Z,92.1
2022-09-18T05:10:26.322Z,91.87
2022-09-18T05:12:27.855Z,92.15
2022-09-18T05:14:29.379Z,91.96
2022-09-18T05:16:30.986Z,92.21
2022-09-18T05:20:33.901Z,92.2
2022-09-18T05:22:35.833Z,92.07
2022-09-18T05:24:37.165Z,91.78
2022-09-18T05:26:38.733Z,92.11
2022-09-18T05:28:40.441Z,92.42
2022-09-18T05:30:41.454Z,92.53
2022-09-18T05:32:42.976Z,92.16
2022-09-18T05:34:44.534Z,92.07
2022-09-18T05:36:46.197Z,92.34
2022-09-18T05:38:47.178Z,91.92
2022-09-18T05:40:48.803Z,91.67
2022-09-18T05:42:49.855Z,92.17
2022-09-18T05:44:51.042Z,92.32
2022-09-18T05:46:52.788Z,92.12
2022-09-18T05:48:54.334Z,92.03
2022-09-18T05:50:55.504Z,91.99
2022-09-18T05:52:56.460Z,92.13
2022-09-18T05:54:57.951Z,91.69
2022-09-18T05:56:59.241Z,91.91
2022-09-18T05:59:00.796Z,92.04
2022-09-18T06:01:02.011Z,91.85
2022-09-18T06:05:04.265Z,91.44
2022-09-18T06:07:05.340Z,91.55
2022-09-18T06:09:06.795Z,91.62
2022-09-18T06:11:08.105Z,91.63
2022-09-18T06:13:09.323Z,91.63
2022-09-18T06:15:11.012Z,91.65
2022-09-18T06:17:12.701Z,91.62
2022-09-18T06:19:14.269Z,91.57
2022-09-18T06:21:15.525Z,91.2
2022-09-18T06:23:17.057Z,91.27
2022-09-18T06:25:18.107Z,91.43
2022-09-18T06:27:19.345Z,91.23
2022-09-18T06:29:20.381Z,91.25
2022-09-18T06:31:21.941Z,91.2
2022-09-18T06:33:23.180Z,91.35
2022-09-18T06:35:24.136Z,91.23
2022-09-18T06:37:25.982Z,91.46
2022-09-18T06:39:27.413Z,91.27
2022-09-18T06:41:28.738Z,91.32
2022-09-18T06:45:30.860Z,90.76
2022-09-18T06:47:32.194Z,91.08
2022-09-18T06:49:33.734Z,90.75
2022-09-18T06:51:34.737Z,90.55
2022-09-18T06:53:36.365Z,90.74
2022-09-18T06:55:37.473Z,90.78
2022-09-18T06:57:38.421Z,90.71
2022-09-18T06:59:39.606Z,90.91
2022-09-18T07:01:40.794Z,90.65
2022-09-18T07:03:42.559Z,90.42
2022-09-18T07:05:43.882Z,90.54
2022-09-18T07:07:45.597Z,90.34
2022-09-18T07:09:46.910Z,90.5
2022-09-18T07:11:48.824Z,90.52
2022-09-18T07:13:50.742Z,90.28
2022-09-18T07:17:53.821Z,90.33
2022-09-18T07:19:55.697Z,90
2022-09-18T07:21:57.553Z,90.17
2022-09-18T07:23:59.364Z,90.17
2022-09-18T07:28:02.511Z,90.03
2022-09-18T07:30:04.343Z,90.19
2022-09-18T07:32:05.859Z,89.66
2022-09-18T07:34:07.732Z,89.74
2022-09-18T07:36:09.751Z,89.9
2022-09-18T07:38:10.725Z,89.48
2022-09-18T07:40:11.900Z,89.39
2022-09-18T07:42:12.944Z,89.32
2022-09-18T07:44:14.703Z,89.06
2022-09-18T07:46:16.467Z,88.99
2022-09-18T07:48:17.961Z,88.54
2022-09-18T07:50:19.237Z,88.76
2022-09-18T07:52:20.338Z,88.93
2022-09-18T07:54:21.313Z,88.93
2022-09-18T07:56:22.516Z,88.7
2022-09-18T07:58:24.172Z,88.47
2022-09-18T08:00:25.420Z,88.52
2022-09-18T08:02:26.471Z,88.29
2022-09-18T08:04:27.900Z,87.68
2022-09-18T08:06:29.180Z,87.92
2022-09-18T08:08:31.067Z,87.66
2022-09-18T08:10:32.507Z,88.05
2022-09-18T08:12:34.263Z,87.41
2022-09-18T08:14:35.180Z,87.42
2022-09-18T08:16:36.467Z,87.61
2022-09-18T08:18:38.284Z,87.07
2022-09-18T08:20:40.043Z,86.9
2022-09-18T08:22:41.837Z,86.73
2022-09-18T08:26:44.942Z,86.39
2022-09-18T08:28:46.013Z,86.69
2022-09-18T08:30:47.723Z,86.74
2022-09-18T08:32:49.052Z,86.46
2022-09-18T08:34:50.766Z,85.91
2022-09-18T08:36:51.792Z,86.21
2022-09-18T08:38:53.070Z,86.44
2022-09-18T08:40:54.144Z,86.51
2022-09-18T08:44:57.463Z,86.64
2022-09-18T08:46:58.723Z,85.55
2022-09-18T08:48:59.933Z,85.64
2022-09-18T08:51:01.422Z,85.31
2022-09-18T08:53:03.188Z,85.69
2022-09-18T08:55:04.638Z,85.6
2022-09-18T08:57:05.781Z,85.47
2022-09-18T08:59:07.424Z,84.93
2022-09-18T09:01:08.410Z,84.07
2022-09-18T09:03:09.892Z,84.98
2022-09-18T09:05:11.470Z,85.08
2022-09-18T09:09:16.930Z,84.48
2022-09-18T09:11:15.142Z,84.08
2022-09-18T09:13:16.513Z,84.07
2022-09-18T09:15:21.449Z,84.6
2022-09-18T09:17:19.155Z,84.86
2022-09-18T09:19:20.197Z,85.19
2022-09-18T09:21:21.617Z,85.53
2022-09-18T09:23:23.077Z,85.77
2022-09-18T09:25:24.685Z,85.82
2022-09-18T09:27:25.834Z,86.8
2022-09-18T09:29:27.020Z,86.9
2022-09-18T09:31:28.828Z,86.86
2022-09-18T09:33:30.381Z,86.93
2022-09-18T09:35:31.473Z,86.84
2022-09-18T09:37:33.861Z,86.35
2022-09-18T09:41:35.601Z,85.71
2022-09-18T09:43:36.734Z,85.74
2022-09-18T09:45:37.827Z,85.81
2022-09-18T09:47:38.806Z,85.73
2022-09-18T09:51:41.891Z,85.29
2022-09-18T09:53:43.292Z,85.58
2022-09-18T09:55:44.998Z,84.66
2022-09-18T09:57:46.059Z,84.83
2022-09-18T09:59:47.899Z,83.92
2022-09-18T10:01:49.340Z,83.87
2022-09-18T10:03:50.212Z,83.61
2022-09-18T10:05:53.872Z,84.09
2022-09-18T10:07:53.659Z,83.92
2022-09-18T10:09:54.909Z,84.06
2022-09-18T10:11:57.305Z,83.94
2022-09-18T10:13:57.597Z,84.11
2022-09-18T10:15:59.419Z,83.73
2022-09-18T10:18:01.040Z,83.57
2022-09-18T10:20:02.164Z,82.51
2022-09-18T10:22:03.909Z,82.92
2022-09-18T10:24:05.571Z,83.17
2022-09-18T10:26:06.965Z,82.61
2022-09-18T10:28:07.992Z,82.34
2022-09-18T10:30:09.379Z,82.66
2022-09-18T10:32:10.731Z,81.93
2022-09-18T10:34:11.812Z,81.93
2022-09-18T10:36:12.887Z,82.31
2022-09-18T10:38:14.413Z,82.21
2022-09-18T10:40:15.623Z,82.17
2022-09-18T10:42:16.905Z,82.44
2022-09-18T10:44:18.654Z,82.42
2022-09-18T10:46:20.117Z,82.18
2022-09-18T10:50:22.913Z,82.9
2022-09-18T10:52:25.127Z,82.23
2022-09-18T10:54:26.713Z,82.34
2022-09-18T10:56:28.495Z,82.5
2022-09-18T10:58:30.141Z,82.24
2022-09-18T11:00:31.622Z,82.74
2022-09-18T11:02:33.203Z,82.1
2022-09-18T11:04:34.560Z,81.99
2022-09-18T11:06:35.858Z,81.73
2022-09-18T11:08:36.965Z,81.8
2022-09-18T11:10:38.771Z,81.96
2022-09-18T11:12:40.491Z,81.75
2022-09-18T11:14:41.905Z,81.44
2022-09-18T11:16:43.753Z,81.45
2022-09-18T11:18:45.281Z,81.01
2022-09-18T11:22:48.472Z,81.41
2022-09-18T11:24:49.675Z,80.56
2022-09-18T11:26:51.570Z,81.52
2022-09-18T11:27:35.391Z,80.5
2022-09-18T11:29:36.643Z,80.45
2022-09-18T11:31:37.985Z,80.81
2022-09-18T11:33:39.092Z,81.03
2022-09-18T11:35:40.243Z,80.24
2022-09-18T11:37:41.905Z,80.05
2022-09-18T11:39:43.303Z,80.27
2022-09-18T11:43:45.639Z,79.57
2022-09-18T11:45:46.593Z,79.41
2022-09-18T11:47:47.896Z,79.75
2022-09-18T11:49:49.624Z,79.6
2022-09-18T11:51:51.320Z,78.28
2022-09-18T11:53:52.908Z,77.9
2022-09-18T11:55:54.034Z,77.25
2022-09-18T11:59:57.516Z,76.51
2022-09-18T12:01:58.932Z,76.62
2022-09-18T12:03:59.978Z,76.87
2022-09-18T12:06:01.298Z,78.1
2022-09-18T12:10:02.041Z,81.23
2022-09-18T12:12:03.006Z,82.25
2022-09-18T12:14:04.424Z,83.33
2022-09-18T12:16:05.557Z,82.99
2022-09-18T12:18:06.921Z,82.59
2022-09-18T12:20:08.329Z,81.75
2022-09-18T12:22:09.414Z,82.9
2022-09-18T12:24:10.471Z,81.47
2022-09-18T12:26:12.079Z,82.89
2022-09-18T12:28:13.421Z,81.8
2022-09-18T12:30:15.036Z,81.32
2022-09-18T12:32:16.221Z,80.53
2022-09-18T12:34:17.562Z,79.9
2022-09-18T12:36:18.698Z,79.2
2022-09-18T12:38:20.435Z,79.72
2022-09-18T12:40:22.154Z,79.5
2022-09-18T12:42:23.583Z,78.46
2022-09-18T12:44:25.278Z,78.29
2022-09-18T12:46:26.426Z,78.12
2022-09-18T12:48:27.955Z,78.27
2022-09-18T12:50:30.379Z,77.63
2022-09-18T12:52:32.236Z,77.2
2022-09-18T12:54:33.551Z,76.64
2022-09-18T12:56:34.916Z,76.76
2022-09-18T12:58:36.498Z,76.74
2022-09-18T13:00:38.179Z,76.99
2022-09-18T13:02:39.473Z,76.83
2022-09-18T13:04:40.997Z,76.85
2022-09-18T13:08:44.305Z,76.48
2022-09-18T13:10:45.768Z,77.13
2022-09-18T13:12:47.431Z,76.71
2022-09-18T13:14:49.136Z,77.34
2022-09-18T13:16:51.489Z,76.55
2022-09-18T13:18:53.326Z,76.05
2022-09-18T13:20:54.625Z,76.21
2022-09-18T13:22:55.920Z,76.68
2022-09-18T13:24:57.546Z,77.65
2022-09-18T13:26:59.036Z,77.6
2022-09-18T13:29:00.237Z,78.34
2022-09-18T13:31:01.265Z,79
2022-09-18T13:33:02.395Z,79.54
2022-09-18T13:35:03.878Z,80.45
2022-09-18T13:37:05.455Z,81.1
2022-09-18T13:39:06.673Z,82.33
2022-09-18T13:41:07.553Z,82.11
2022-09-18T13:43:08.830Z,82.08
2022-09-18T13:45:10.453Z,83.48
2022-09-18T13:47:12.266Z,83.6
2022-09-18T13:49:14.012Z,83.66
2022-09-18T13:51:15.604Z,82.57
2022-09-18T13:53:17.414Z,83.74
2022-09-18T13:55:19.155Z,83.06
2022-09-18T13:57:21.245Z,83.04
2022-09-18T13:59:22.720Z,83.32
2022-09-18T14:01:23.659Z,82.58
2022-09-18T14:03:27.755Z,81.88
2022-09-18T14:05:26.749Z,81.92
2022-09-18T14:07:27.658Z,81.31
2022-09-18T14:09:30.063Z,81.24
2022-09-18T14:11:31.608Z,81.87
2022-09-18T14:13:33.488Z,82.76
2022-09-18T14:15:35.295Z,81.88
2022-09-18T14:17:37.149Z,82.28
2022-09-18T14:19:38.510Z,83.15
2022-09-18T14:21:40.000Z,83.27
2022-09-18T14:23:40.970Z,83.3
2022-09-18T14:25:42.665Z,82.24
2022-09-18T14:27:44.524Z,82.94
2022-09-18T14:29:45.697Z,80.99
2022-09-18T14:31:47.434Z,82.38
2022-09-18T14:33:48.956Z,82.5
2022-09-18T14:35:50.880Z,82.21
2022-09-18T14:37:52.254Z,82.04
2022-09-18T14:39:53.423Z,83.02
2022-09-18T14:41:54.984Z,82.76
2022-09-18T14:43:56.003Z,81.8
2022-09-18T14:45:57.663Z,82.42
2022-09-18T14:47:59.401Z,81.63
2022-09-18T14:50:01.222Z,81.47
2022-09-18T14:52:04.545Z,81.25
2022-09-18T14:54:03.993Z,80.77
2022-09-18T14:56:05.726Z,80.31
2022-09-18T14:58:06.933Z,80.96
2022-09-18T15:00:08.667Z,81.55
2022-09-18T15:06:12.602Z,82.21
2022-09-18T15:08:14.355Z,81.69
2022-09-18T15:10:15.394Z,82.11
2022-09-18T15:12:16.497Z,82.42
2022-09-18T15:16:20.045Z,82.11
2022-09-18T15:18:21.128Z,81.78
2022-09-18T15:20:22.174Z,81.4
2022-09-18T15:22:23.265Z,81.04
2022-09-18T15:24:24.483Z,80.5
2022-09-18T15:26:26.190Z,81.7
2022-09-18T15:28:27.617Z,80.12
2022-09-18T15:30:29.291Z,80.92
2022-09-18T15:32:30.285Z,80.22
2022-09-18T15:34:31.814Z,79.53
2022-09-18T15:36:33.569Z,79.45
2022-09-18T15:38:35.385Z,80.16
2022-09-18T15:40:36.614Z,80.34
2022-09-18T15:42:37.539Z,79.76
2022-09-18T15:44:39.255Z,79.77
2022-09-18T15:46:41.216Z,80.21
2022-09-18T15:48:42.764Z,80.62
2022-09-18T15:50:43.755Z,79.89
2022-09-18T15:52:44.886Z,79.4
2022-09-18T15:54:45.992Z,80.64
2022-09-18T15:58:49.586Z,77.92
2022-09-18T16:00:50.934Z,79.54
2022-09-18T16:02:52.585Z,78.22
2022-09-18T16:04:53.866Z,78.51
2022-09-18T16:06:55.254Z,78.71
2022-09-18T16:08:56.938Z,78.82
2022-09-18T16:10:58.614Z,80.33
2022-09-18T16:13:00.158Z,80.57
2022-09-18T16:15:01.752Z,79.65
2022-09-18T16:17:03.191Z,80.46
2022-09-18T16:19:04.801Z,80.11
2022-09-18T16:21:06.132Z,77.73
2022-09-18T16:23:07.902Z,79.46
2022-09-18T16:25:09.362Z,79.03
2022-09-18T16:27:11.099Z,80.18
2022-09-18T16:31:13.962Z,79.31
2022-09-18T16:33:15.416Z,79.47
2022-09-18T16:35:17.255Z,77.34
2022-09-18T16:37:19.007Z,76.59
2022-09-18T16:41:21.750Z,76.63
2022-09-18T16:43:23.454Z,75.82
2022-09-18T16:45:25.214Z,75.97
2022-09-18T16:47:26.407Z,77.04
2022-09-18T16:49:27.547Z,77.04
2022-09-18T16:51:29.152Z,76.87
2022-09-18T16:53:30.141Z,76.99
2022-09-18T16:55:31.132Z,75.82
2022-09-18T16:57:32.796Z,75.78
2022-09-18T16:59:33.805Z,76.72
2022-09-18T17:01:48.458Z,75.3
2022-09-18T17:03:36.763Z,76.65
2022-09-18T17:05:38.418Z,76.14
2022-09-18T17:07:39.502Z,75.99
2022-09-18T17:09:41.317Z,76.09
2022-09-18T17:13:43.978Z,76.09
2022-09-18T17:15:45.520Z,77.52
2022-09-18T17:19:47.872Z,77.13
2022-09-18T17:23:51.328Z,76.79
2022-09-18T17:25:52.980Z,77.94
2022-09-18T17:27:54.022Z,78.82
2022-09-18T17:29:55.461Z,78.65
2022-09-18T17:31:56.698Z,79.57
2022-09-18T17:33:57.609Z,77.45
2022-09-18T17:35:59.253Z,79.51
2022-09-18T17:40:01.820Z,81.93
2022-09-18T17:42:03.495Z,83
2022-09-18T17:44:04.841Z,83.29
2022-09-18T17:46:06.155Z,84.52
2022-09-18T17:48:07.303Z,84.18
2022-09-18T17:50:08.484Z,85.04
2022-09-18T17:52:09.412Z,84.65
2022-09-18T17:54:11.332Z,83.41
2022-09-18T17:56:12.274Z,83.45
2022-09-18T17:58:13.392Z,83.42
2022-09-18T18:00:14.860Z,83.25
2022-09-18T18:02:15.932Z,82.18
2022-09-18T18:04:17.743Z,83.96
2022-09-18T18:06:21.738Z,84.21
2022-09-18T18:08:20.655Z,84.78
2022-09-18T18:10:22.220Z,83.52
2022-09-18T18:12:23.747Z,84.28
2022-09-18T18:13:07.586Z,85.03
2022-09-18T18:15:08.859Z,83.39
2022-09-18T18:17:10.400Z,84.48
2022-09-18T18:19:11.795Z,85.33
2022-09-18T18:21:13.506Z,85.72
2022-09-18T18:23:15.383Z,86.33
2022-09-18T18:25:16.580Z,85.13
2022-09-18T18:27:17.942Z,85.98
2022-09-18T18:29:19.597Z,85.9
2022-09-18T18:31:21.354Z,86.97
2022-09-18T18:33:22.757Z,87.44
2022-09-18T18:35:24.115Z,86.48
2022-09-18T18:37:25.589Z,85.26
2022-09-18T18:39:26.595Z,85.69
2022-09-18T18:41:28.122Z,86.5
2022-09-18T18:43:29.771Z,86.63
2022-09-18T18:45:31.645Z,84.75
2022-09-18T18:49:35.038Z,85.37
2022-09-18T18:51:36.172Z,85.72
2022-09-18T18:53:37.227Z,86.01
2022-09-18T18:55:38.707Z,85.66
2022-09-18T18:57:40.523Z,86.74
2022-09-18T18:59:42.033Z,86.87
2022-09-18T19:01:43.495Z,87.09
2022-09-18T19:03:44.413Z,86.77
2022-09-18T19:05:46.176Z,86.4
2022-09-18T19:07:47.231Z,86.33
2022-09-18T19:09:48.747Z,85.55
2022-09-18T19:11:49.833Z,86.13
2022-09-18T19:13:50.948Z,85.62
2022-09-18T19:15:52.050Z,85.97
2022-09-18T19:17:53.934Z,84.95
2022-09-18T19:19:55.472Z,85.85
2022-09-18T19:21:57.040Z,85.13
2022-09-18T19:23:58.663Z,84.99
2022-09-18T19:26:00.095Z,84.59
2022-09-18T19:28:01.888Z,85.2
2022-09-18T19:32:04.177Z,85.83
2022-09-18T19:34:06.057Z,86.32
2022-09-18T19:36:07.964Z,86.98
2022-09-18T19:38:09.726Z,87.67
2022-09-18T19:42:12.411Z,87.95
2022-09-18T19:44:13.585Z,88.46
2022-09-18T19:48:15.703Z,88.12
2022-09-18T19:50:17.078Z,88.69
2022-09-18T19:52:18.124Z,88.47
2022-09-18T19:54:19.247Z,88.56
2022-09-18T19:58:21.854Z,88.7
2022-09-18T20:00:23.268Z,88.99
2022-09-18T20:02:24.827Z,88.9
2022-09-18T20:04:26.162Z,88.82
2022-09-18T20:06:27.461Z,89.06
2022-09-18T20:08:28.490Z,88.78
2022-09-18T20:10:30.082Z,89.44
2022-09-18T20:12:34.886Z,89.64
2022-09-18T20:14:32.233Z,90.16
2022-09-18T20:16:34.096Z,90.62
2022-09-18T20:18:35.151Z,91.06
2022-09-18T20:20:36.693Z,91.41
2022-09-18T20:22:38.385Z,91.63
2022-09-18T20:24:39.719Z,92.16
2022-09-18T20:26:41.391Z,92.32
2022-09-18T20:28:42.939Z,92.75
2022-09-18T20:30:44.116Z,92.47
2022-09-18T20:32:45.132Z,92.27
2022-09-18T20:34:47.948Z,92.44
2022-09-18T20:36:47.831Z,92.28
2022-09-18T20:40:51.050Z,92.55
2022-09-18T20:42:52.150Z,92.43
2022-09-18T20:44:53.147Z,92.57
2022-09-18T20:46:55.039Z,92.74
2022-09-18T20:48:56.936Z,93.1
2022-09-18T20:50:58.606Z,93.29
2022-09-18T20:52:59.779Z,93.57
2022-09-18T20:55:01.153Z,93.85
2022-09-18T20:57:02.145Z,91.57
2022-09-18T20:59:03.914Z,90.61
2022-09-18T21:01:04.971Z,91.56
2022-09-18T21:03:06.196Z,91.5
2022-09-18T21:05:07.762Z,91.68
2022-09-18T21:07:17.176Z,92.3
2022-09-18T21:09:10.258Z,92.8
2022-09-18T21:13:13.273Z,93.31
2022-09-18T21:15:14.722Z,93.44
2022-09-18T21:17:16.477Z,93.71
2022-09-18T21:19:17.849Z,93.91
2022-09-18T21:23:20.657Z,93.86
2022-09-18T21:25:21.855Z,94.06
2022-09-18T21:27:23.610Z,93.92
2022-09-18T21:29:25.018Z,93.55
2022-09-18T21:31:26.921Z,93.69
2022-09-18T21:33:27.933Z,94.16
2022-09-18T21:35:29.864Z,94.18
2022-09-18T21:37:31.543Z,94.18
2022-09-18T21:39:32.957Z,94.35
2022-09-18T21:41:34.265Z,94.5
2022-09-18T21:43:35.728Z,94.76
2022-09-18T21:45:37.135Z,94.85
2022-09-18T21:47:38.362Z,95.05
2022-09-18T21:49:40.149Z,95.15
2022-09-18T21:51:41.588Z,95.21
2022-09-18T21:53:42.918Z,94.97
2022-09-18T21:55:44.485Z,94.99
2022-09-18T21:57:46.058Z,95.06
2022-09-18T21:59:47.135Z,95.14
2022-09-18T22:01:49.132Z,95.24
2022-09-18T22:03:50.087Z,95.36
2022-09-18T22:05:51.944Z,95.41
2022-09-18T22:07:53.274Z,95.48
2022-09-18T22:11:56.368Z,95.75
2022-09-18T22:13:57.700Z,95.89
2022-09-18T22:15:59.424Z,96
2022-09-18T22:18:00.629Z,96.03
2022-09-18T22:20:02.079Z,96.06
2022-09-18T22:22:03.906Z,95.92
2022-09-18T22:24:05.085Z,95.84
2022-09-18T22:26:06.862Z,95.61
2022-09-18T22:28:08.085Z,95.51
2022-09-18T22:30:09.110Z,95.43
2022-09-18T22:32:10.271Z,95.38
2022-09-18T22:34:12.177Z,95.34
2022-09-18T22:36:13.486Z,95.23
2022-09-18T22:38:14.800Z,95.17
2022-09-18T22:40:16.530Z,95.17
2022-09-18T22:42:17.971Z,95.34
2022-09-18T22:44:19.888Z,95.39
2022-09-18T22:46:21.003Z,95.23
2022-09-18T22:48:23.312Z,95.08
2022-09-18T22:50:23.644Z,95.02
2022-09-18T22:54:25.988Z,95
2022-09-18T22:56:27.529Z,95.1
2022-09-18T22:58:28.883Z,95.2
2022-09-18T23:00:30.501Z,95.24
2022-09-18T23:04:33.644Z,95.51
2022-09-18T23:06:34.752Z,95.57
2022-09-18T23:08:36.134Z,95.72
2022-09-18T23:10:37.375Z,95.96
2022-09-18T23:12:39.002Z,95.73
2022-09-18T23:14:40.136Z,95.6
2022-09-18T23:16:41.554Z,95.57
2022-09-18T23:18:42.914Z,95.7
2022-09-18T23:20:44.657Z,95.77
2022-09-18T23:22:46.003Z,95.76
2022-09-18T23:24:47.879Z,95.73
2022-09-18T23:26:48.950Z,95.85
2022-09-18T23:28:50.144Z,95.95
2022-09-18T23:30:51.350Z,96.11
2022-09-18T23:32:53.090Z,96.16
2022-09-18T23:36:56.237Z,96.1
2022-09-18T23:38:57.246Z,95.98
2022-09-18T23:40:58.738Z,95.95
2022-09-18T23:43:00.574Z,95.88
2022-09-18T23:45:01.910Z,95.86
2022-09-18T23:47:02.985Z,96.04
2022-09-18T23:49:04.754Z,96.01
2022-09-18T23:51:05.954Z,95.85
2022-09-18T23:53:07.172Z,95.88
2022-09-18T23:55:08.578Z,95.95
2022-09-18T23:57:09.872Z,95.97
2022-09-18T23:59:11.818Z,95.95
